createdAt,value
2023-03-17T00:00:45.987Z,0.75
2023-03-17T00:03:37.543Z,1.52
2023-03-17T00:06:06.413Z,2.17
2023-03-17T00:08:36.079Z,0.70
2023-03-17T00:11:03.404Z,1.13
2023-03-17T00:13:33.835Z,1.33
2023-03-17T00:16:04.240Z,2.55
2023-03-17T00:18:33.527Z,0.68
2023-03-17T00:21:00.832Z,1.60
2023-03-17T00:23:27.810Z,1.38
2023-03-17T00:25:54.643Z,1.90
2023-03-17T00:28:27.387Z,4.20
2023-03-17T00:30:57.284Z,3.75
2023-03-17T00:33:28.229Z,2.70
2023-03-17T00:35:56.507Z,4.15
2023-03-17T00:38:26.598Z,0.60
2023-03-17T00:40:54.310Z,0.75
2023-03-17T00:43:21.372Z,1.20
2023-03-17T00:45:48.412Z,1.90
2023-03-17T00:48:18.056Z,4.75
2023-03-17T00:50:46.233Z,1.88
2023-03-17T00:53:15.535Z,1.55
2023-03-17T00:55:45.909Z,1.33
2023-03-17T00:58:34.870Z,1.13
2023-03-17T01:01:02.635Z,1.42
2023-03-17T01:03:31.203Z,2.17
2023-03-17T01:05:58.141Z,3.20
2023-03-17T01:08:27.150Z,3.40
2023-03-17T01:10:54.940Z,1.67
2023-03-17T01:13:22.223Z,3.97
2023-03-17T01:15:52.224Z,2.38
2023-03-17T01:18:22.883Z,2.90
2023-03-17T01:20:51.673Z,1.17
2023-03-17T01:23:19.074Z,2.38
2023-03-17T01:25:46.154Z,2.60
2023-03-17T01:28:18.636Z,2.58
2023-03-17T01:30:47.098Z,3.72
2023-03-17T01:33:15.062Z,3.65
2023-03-17T01:35:43.951Z,2.10
2023-03-17T01:38:12.094Z,4.18
2023-03-17T01:40:45.358Z,3.13
2023-03-17T01:43:12.522Z,5.60
2023-03-17T01:46:17.473Z,2.45
2023-03-17T01:49:05.896Z,2.47
2023-03-17T01:51:43.336Z,0.70
2023-03-17T01:54:24.401Z,1.17
2023-03-17T01:56:56.692Z,1.23
2023-03-17T01:59:31.871Z,3.47
2023-03-17T02:02:04.389Z,5.13
2023-03-17T02:04:33.256Z,2.65
2023-03-17T02:07:00.668Z,1.38
2023-03-17T02:09:28.607Z,3.60
2023-03-17T02:11:58.381Z,5.97
2023-03-17T02:14:25.694Z,7.07
2023-03-17T02:16:52.834Z,7.45
2023-03-17T02:19:20.150Z,6.00
2023-03-17T02:21:50.762Z,3.85
2023-03-17T02:24:24.891Z,1.38
2023-03-17T02:26:54.725Z,1.58
2023-03-17T02:29:23.523Z,3.58
2023-03-17T02:31:51.219Z,2.33
2023-03-17T02:34:18.520Z,3.88
2023-03-17T02:36:46.569Z,1.63
2023-03-17T02:39:13.813Z,2.83
2023-03-17T02:41:41.974Z,3.78
2023-03-17T02:44:09.071Z,2.80
2023-03-17T02:46:36.327Z,2.42
2023-03-17T02:49:04.677Z,3.05
2023-03-17T02:51:31.784Z,3.00
2023-03-17T02:53:59.015Z,1.85
2023-03-17T02:56:26.324Z,1.80
2023-03-17T02:58:53.324Z,1.85
2023-03-17T03:01:21.393Z,2.97
2023-03-17T03:03:48.839Z,3.60
2023-03-17T03:06:16.547Z,3.45
2023-03-17T03:08:43.766Z,5.03
2023-03-17T03:11:10.947Z,2.53
2023-03-17T03:13:39.154Z,3.33
2023-03-17T03:16:06.574Z,2.33
2023-03-17T03:18:33.830Z,2.45
2023-03-17T03:21:01.191Z,2.22
2023-03-17T03:23:28.380Z,3.75
2023-03-17T03:25:56.271Z,2.63
2023-03-17T03:28:24.099Z,4.53
2023-03-17T03:30:51.440Z,4.65
2023-03-17T03:33:18.780Z,5.35
2023-03-17T03:35:45.859Z,4.82
2023-03-17T03:38:13.290Z,10.35
2023-03-17T03:40:40.612Z,3.03
2023-03-17T03:43:22.006Z,7.43
2023-03-17T03:45:50.909Z,5.97
2023-03-17T03:48:18.780Z,2.25
2023-03-17T03:50:45.851Z,3.33
2023-03-17T03:53:13.356Z,3.65
2023-03-17T03:55:41.047Z,3.33
2023-03-17T03:58:08.954Z,3.88
2023-03-17T04:00:36.108Z,5.38
2023-03-17T04:03:05.804Z,7.85
2023-03-17T04:05:33.393Z,3.30
2023-03-17T04:08:00.900Z,6.53
2023-03-17T04:10:28.206Z,3.28
2023-03-17T04:12:55.895Z,4.88
2023-03-17T04:15:23.618Z,2.00
2023-03-17T04:17:50.522Z,5.65
2023-03-17T04:20:18.059Z,3.95
2023-03-17T04:22:45.666Z,2.17
2023-03-17T04:25:14.878Z,5.20
2023-03-17T04:27:43.057Z,2.88
2023-03-17T04:30:13.990Z,5.32
2023-03-17T04:32:41.909Z,3.75
2023-03-17T04:35:14.024Z,4.22
2023-03-17T04:37:41.696Z,3.03
2023-03-17T04:40:10.417Z,1.77
2023-03-17T04:42:38.154Z,2.47
2023-03-17T04:45:06.780Z,2.38
2023-03-17T04:47:33.924Z,5.07
2023-03-17T04:50:01.827Z,2.03
2023-03-17T04:52:29.019Z,5.22
2023-03-17T04:54:56.018Z,3.10
2023-03-17T04:57:24.649Z,15.75
2023-03-17T04:59:51.862Z,2.53
2023-03-17T05:02:19.178Z,6.43
2023-03-17T05:04:46.560Z,4.38
2023-03-17T05:07:13.823Z,6.35
2023-03-17T05:09:40.972Z,3.72
2023-03-17T05:12:09.466Z,6.22
2023-03-17T05:14:37.593Z,3.50
2023-03-17T05:17:04.812Z,3.72
2023-03-17T05:19:31.990Z,3.67
2023-03-17T05:22:03.321Z,2.88
2023-03-17T05:24:36.220Z,3.30
2023-03-17T05:27:03.343Z,2.58
2023-03-17T05:29:30.615Z,1.73
2023-03-17T05:32:01.387Z,2.35
2023-03-17T05:34:28.546Z,5.88
2023-03-17T05:36:55.747Z,2.28
2023-03-17T05:39:26.746Z,2.88
2023-03-17T05:41:53.728Z,3.20
2023-03-17T05:44:21.053Z,3.75
2023-03-17T05:46:52.148Z,3.95
2023-03-17T05:49:23.226Z,3.78
2023-03-17T05:51:50.307Z,2.40
2023-03-17T05:54:21.636Z,4.07
2023-03-17T05:59:16.792Z,3.53
2023-03-17T06:01:43.557Z,7.88
2023-03-17T06:04:10.883Z,2.60
2023-03-17T06:06:37.792Z,4.72
2023-03-17T06:09:04.729Z,8.68
2023-03-17T06:11:31.432Z,5.25
2023-03-17T06:13:58.113Z,4.70
2023-03-17T06:16:24.919Z,5.32
2023-03-17T06:18:51.776Z,9.52
2023-03-17T06:21:18.497Z,4.32
2023-03-17T06:23:45.286Z,6.47
2023-03-17T06:26:11.993Z,5.25
2023-03-17T06:28:38.708Z,5.85
2023-03-17T06:31:07.328Z,2.03
2023-03-17T06:33:34.595Z,5.88
2023-03-17T06:36:01.850Z,6.60
2023-03-17T06:38:28.707Z,5.38
2023-03-17T06:40:55.719Z,5.78
2023-03-17T06:43:24.751Z,6.25
2023-03-17T06:45:52.631Z,4.85
2023-03-17T06:48:19.469Z,3.47
2023-03-17T06:50:47.741Z,3.17
2023-03-17T06:53:14.610Z,4.72
2023-03-17T06:55:42.061Z,2.65
2023-03-17T06:58:10.647Z,6.45
2023-03-17T07:00:40.022Z,3.17
2023-03-17T07:03:06.749Z,3.88
2023-03-17T07:05:34.124Z,6.55
2023-03-17T07:08:01.049Z,6.85
2023-03-17T07:10:28.140Z,4.63
2023-03-17T07:12:55.143Z,5.32
2023-03-17T07:15:22.057Z,3.92
2023-03-17T07:17:48.962Z,7.20
2023-03-17T07:20:15.726Z,7.90
2023-03-17T07:22:42.462Z,6.60
2023-03-17T07:25:09.799Z,5.20
2023-03-17T07:27:36.775Z,3.88
2023-03-17T07:30:05.190Z,5.10
2023-03-17T07:32:32.544Z,3.25
2023-03-17T07:34:59.471Z,5.47
2023-03-17T07:37:26.198Z,6.05
2023-03-17T07:39:52.944Z,4.10
2023-03-17T07:42:19.845Z,8.25
2023-03-17T07:44:46.745Z,8.27
2023-03-17T07:47:14.522Z,4.10
2023-03-17T07:49:42.521Z,6.95
2023-03-17T07:52:10.598Z,8.38
2023-03-17T07:54:37.790Z,4.38
2023-03-17T07:57:05.588Z,8.23
2023-03-17T07:59:32.994Z,7.05
2023-03-17T08:02:01.739Z,7.50
2023-03-17T08:04:29.221Z,5.15
2023-03-17T08:06:57.177Z,8.30
2023-03-17T08:09:24.363Z,4.63
2023-03-17T08:11:51.157Z,6.25
2023-03-17T08:14:17.929Z,9.23
2023-03-17T08:16:44.674Z,5.88
2023-03-17T08:19:11.733Z,6.65
2023-03-17T08:21:38.428Z,11.45
2023-03-17T08:24:05.470Z,6.35
2023-03-17T08:26:32.451Z,7.38
2023-03-17T08:28:59.710Z,7.25
2023-03-17T08:31:26.594Z,8.25
2023-03-17T08:33:56.618Z,5.32
2023-03-17T08:36:24.151Z,9.10
2023-03-17T08:38:51.156Z,7.03
2023-03-17T08:41:21.879Z,7.22
2023-03-17T08:43:48.832Z,13.38
2023-03-17T08:46:17.751Z,10.15
2023-03-17T08:48:46.810Z,8.70
2023-03-17T08:51:15.261Z,8.73
2023-03-17T08:53:43.365Z,13.00
2023-03-17T08:56:10.428Z,7.03
2023-03-17T08:58:39.860Z,8.68
2023-03-17T09:01:07.224Z,4.93
2023-03-17T09:03:34.252Z,7.30
2023-03-17T09:06:00.996Z,7.95
2023-03-17T09:08:28.187Z,8.57
2023-03-17T09:10:54.979Z,8.25
2023-03-17T09:13:22.730Z,10.68
2023-03-17T09:15:51.842Z,5.45
2023-03-17T09:18:21.875Z,11.82
2023-03-17T09:20:48.992Z,7.88
2023-03-17T09:23:16.009Z,9.60
2023-03-17T09:25:43.379Z,9.82
2023-03-17T09:28:12.564Z,6.90
2023-03-17T09:30:43.006Z,7.43
2023-03-17T09:33:11.971Z,8.93
2023-03-17T09:35:40.021Z,5.38
2023-03-17T09:38:08.797Z,7.70
2023-03-17T09:40:49.268Z,5.95
2023-03-17T09:43:44.237Z,5.85
2023-03-17T09:46:28.249Z,8.00
2023-03-17T09:49:10.956Z,11.85
2023-03-17T09:51:38.712Z,4.68
2023-03-17T09:54:13.009Z,7.63
2023-03-17T09:56:46.137Z,9.48
2023-03-17T09:59:37.235Z,6.32
2023-03-17T10:02:24.848Z,7.95
2023-03-17T10:04:51.736Z,9.82
2023-03-17T10:07:40.620Z,9.40
2023-03-17T10:10:19.619Z,7.47
2023-03-17T10:13:09.692Z,9.88
2023-03-17T10:15:55.503Z,9.18
2023-03-17T10:18:27.573Z,9.45
2023-03-17T10:21:04.627Z,7.20
2023-03-17T10:23:34.113Z,10.55
2023-03-17T10:26:34.767Z,8.50
2023-03-17T10:29:10.752Z,5.97
2023-03-17T10:31:39.311Z,8.05
2023-03-17T10:34:19.149Z,10.77
2023-03-17T10:36:55.375Z,9.38
2023-03-17T10:39:24.640Z,8.35
2023-03-17T10:42:01.620Z,8.65
2023-03-17T10:44:43.894Z,8.48
2023-03-17T10:47:24.153Z,5.85
2023-03-17T10:49:52.488Z,8.07
2023-03-17T10:52:25.512Z,7.38
2023-03-17T10:54:52.692Z,10.68
2023-03-17T10:57:20.698Z,6.70
2023-03-17T10:59:53.994Z,10.05
2023-03-17T11:02:35.968Z,9.10
2023-03-17T11:05:23.646Z,12.10
2023-03-17T11:07:56.818Z,6.43
2023-03-17T11:10:26.692Z,7.78
2023-03-17T11:13:01.363Z,6.00
2023-03-17T11:15:43.073Z,7.43
2023-03-17T11:18:32.147Z,9.48
2023-03-17T11:21:05.661Z,7.60
2023-03-17T11:23:49.826Z,8.50
2023-03-17T11:26:39.306Z,10.90
2023-03-17T11:29:23.922Z,8.50
2023-03-17T11:32:08.262Z,9.75
2023-03-17T11:34:34.944Z,12.32
2023-03-17T11:37:12.638Z,7.43
2023-03-17T11:40:04.039Z,6.68
2023-03-17T11:42:38.574Z,6.03
2023-03-17T11:45:26.010Z,12.30
2023-03-17T11:48:14.303Z,9.75
2023-03-17T11:50:50.534Z,8.43
2023-03-17T11:53:36.881Z,8.52
2023-03-17T11:56:05.573Z,6.78
2023-03-17T11:58:37.815Z,9.35
2023-03-17T12:01:10.575Z,5.85
2023-03-17T12:03:43.228Z,8.70
2023-03-17T12:06:18.028Z,9.13
2023-03-17T12:09:11.506Z,8.63
2023-03-17T12:11:43.470Z,7.53
2023-03-17T12:14:19.089Z,8.38
2023-03-17T12:17:12.538Z,6.88
2023-03-17T12:19:55.324Z,9.40
2023-03-17T12:22:41.823Z,8.25
2023-03-17T12:25:27.098Z,6.72
2023-03-17T12:28:11.908Z,10.75
2023-03-17T12:30:49.938Z,9.25
2023-03-17T12:33:17.132Z,8.85
2023-03-17T12:35:43.937Z,7.55
2023-03-17T12:38:13.626Z,7.15
2023-03-17T12:41:07.975Z,8.45
2023-03-17T12:44:12.249Z,7.40
2023-03-17T12:47:00.481Z,7.60
2023-03-17T12:49:54.874Z,9.98
2023-03-17T12:52:34.817Z,5.60
2023-03-17T12:55:05.099Z,7.97
2023-03-17T12:57:40.748Z,8.27
2023-03-17T13:00:25.011Z,6.70
2023-03-17T13:03:27.976Z,11.23
2023-03-17T13:06:00.675Z,7.82
2023-03-17T13:08:39.391Z,6.20
2023-03-17T13:11:27.193Z,5.95
2023-03-17T13:13:54.422Z,6.07
2023-03-17T13:16:41.816Z,8.00
2023-03-17T13:19:16.664Z,7.00
2023-03-17T13:22:10.111Z,9.60
2023-03-17T13:24:50.980Z,10.30
2023-03-17T13:27:32.986Z,7.93
2023-03-17T13:30:22.101Z,11.23
2023-03-17T13:33:12.186Z,10.85
2023-03-17T13:35:54.381Z,8.18
2023-03-17T13:38:30.629Z,8.13
2023-03-17T13:41:22.819Z,10.40
2023-03-17T13:44:22.632Z,6.45
2023-03-17T13:46:49.520Z,8.98
2023-03-17T13:49:29.201Z,8.98
2023-03-17T13:52:11.608Z,12.85
2023-03-17T13:54:49.779Z,7.05
2023-03-17T13:57:27.135Z,8.25
2023-03-17T13:59:55.592Z,12.60
2023-03-17T14:02:25.498Z,11.65
2023-03-17T14:04:58.212Z,9.30
2023-03-17T14:07:31.998Z,8.80
2023-03-17T14:10:02.647Z,7.95
2023-03-17T14:12:46.794Z,6.82
2023-03-17T14:15:36.243Z,7.78
2023-03-17T14:18:10.991Z,10.63
2023-03-17T14:20:37.720Z,8.15
2023-03-17T14:23:05.014Z,9.27
2023-03-17T14:25:38.284Z,8.40
2023-03-17T14:28:10.757Z,9.32
2023-03-17T14:30:38.187Z,9.20
2023-03-17T14:33:21.503Z,11.13
2023-03-17T14:35:51.566Z,8.15
2023-03-17T14:38:18.975Z,8.48
2023-03-17T14:40:46.095Z,11.55
2023-03-17T14:43:13.131Z,7.15
2023-03-17T14:45:47.597Z,8.13
2023-03-17T14:48:16.553Z,8.73
2023-03-17T14:50:55.820Z,13.80
2023-03-17T14:53:24.345Z,8.88
2023-03-17T14:55:53.476Z,12.93
2023-03-17T14:58:48.728Z,7.93
2023-03-17T15:01:17.185Z,10.75
2023-03-17T15:04:07.332Z,10.13
2023-03-17T15:06:37.411Z,9.90
2023-03-17T15:09:18.778Z,11.30
2023-03-17T15:11:46.797Z,8.32
2023-03-17T15:14:29.515Z,9.55
2023-03-17T15:16:57.116Z,8.73
2023-03-17T15:19:44.387Z,8.70
2023-03-17T15:22:32.191Z,11.30
2023-03-17T15:25:05.022Z,11.65
2023-03-17T15:27:32.635Z,13.85
2023-03-17T15:29:59.368Z,9.30
2023-03-17T15:32:27.492Z,14.07
2023-03-17T15:34:59.290Z,10.02
2023-03-17T15:37:29.331Z,8.98
2023-03-17T15:39:57.208Z,9.85
2023-03-17T15:42:26.890Z,11.18
2023-03-17T15:44:53.967Z,16.50
2023-03-17T15:47:23.630Z,13.65
2023-03-17T15:49:51.607Z,12.35
2023-03-17T15:52:25.158Z,10.60
2023-03-17T15:54:59.149Z,11.05
2023-03-17T15:57:27.268Z,14.43
2023-03-17T15:59:54.065Z,11.38
2023-03-17T16:02:34.273Z,10.82
2023-03-17T16:05:03.356Z,13.00
2023-03-17T16:07:31.224Z,14.73
2023-03-17T16:09:58.016Z,12.38
2023-03-17T16:12:25.214Z,11.10
2023-03-17T16:14:51.876Z,12.40
2023-03-17T16:17:28.937Z,13.20
2023-03-17T16:20:00.166Z,8.50
2023-03-17T16:22:42.548Z,11.35
2023-03-17T16:25:21.497Z,11.68
2023-03-17T16:27:48.967Z,13.75
2023-03-17T16:30:19.866Z,14.45
2023-03-17T16:32:46.727Z,16.27
2023-03-17T16:35:18.797Z,14.93
2023-03-17T16:37:45.695Z,10.77
2023-03-17T16:40:24.908Z,11.35
2023-03-17T16:42:52.324Z,11.63
2023-03-17T16:45:24.880Z,13.02
2023-03-17T16:47:51.791Z,11.48
2023-03-17T16:50:21.364Z,12.23
2023-03-17T16:52:48.140Z,11.70
2023-03-17T16:55:16.067Z,11.80
2023-03-17T16:57:45.129Z,15.63
2023-03-17T17:00:18.502Z,17.17
2023-03-17T17:02:47.960Z,12.95
2023-03-17T17:05:21.970Z,14.02
2023-03-17T17:07:49.213Z,16.48
2023-03-17T17:10:19.634Z,16.60
2023-03-17T17:12:47.700Z,15.93
2023-03-17T17:15:16.832Z,13.18
2023-03-17T17:17:51.006Z,16.38
2023-03-17T17:20:39.668Z,17.42
2023-03-17T17:23:11.181Z,12.90
2023-03-17T17:25:37.865Z,11.48
2023-03-17T17:28:05.155Z,21.45
2023-03-17T17:30:32.581Z,14.93
2023-03-17T17:33:00.715Z,18.55
2023-03-17T17:35:32.250Z,10.90
2023-03-17T17:38:00.623Z,14.07
2023-03-17T17:40:27.724Z,12.77
2023-03-17T17:42:54.463Z,22.67
2023-03-17T17:45:21.680Z,16.25
2023-03-17T17:47:48.893Z,13.23
2023-03-17T17:50:25.990Z,15.52
2023-03-17T17:52:53.376Z,18.42
2023-03-17T17:55:20.915Z,12.75
2023-03-17T17:57:47.630Z,14.88
2023-03-17T18:00:17.125Z,16.52
2023-03-17T18:02:44.854Z,15.93
2023-03-17T18:05:12.784Z,13.65
2023-03-17T18:07:40.394Z,15.23
2023-03-17T18:10:07.797Z,19.60
2023-03-17T18:12:34.651Z,19.35
2023-03-17T18:15:01.404Z,13.00
2023-03-17T18:17:29.206Z,21.05
2023-03-17T18:19:57.399Z,17.20
2023-03-17T18:22:24.218Z,23.27
2023-03-17T18:24:51.017Z,22.83
2023-03-17T18:27:17.841Z,19.10
2023-03-17T18:29:44.972Z,13.48
2023-03-17T18:32:12.485Z,13.25
2023-03-17T18:34:43.906Z,17.50
2023-03-17T18:37:13.505Z,15.90
2023-03-17T18:39:41.392Z,16.23
2023-03-17T18:42:09.229Z,20.52
2023-03-17T18:44:36.061Z,20.02
2023-03-17T18:47:03.352Z,17.85
2023-03-17T18:49:31.343Z,15.77
2023-03-17T18:51:59.534Z,17.20
2023-03-17T18:54:27.656Z,19.17
2023-03-17T18:56:55.058Z,23.25
2023-03-17T18:59:21.739Z,21.48
2023-03-17T19:01:48.614Z,22.60
2023-03-17T19:04:15.653Z,16.65
2023-03-17T19:06:42.776Z,18.00
2023-03-17T19:09:10.781Z,18.85
2023-03-17T19:11:39.256Z,17.80
2023-03-17T19:14:07.435Z,19.70
2023-03-17T19:16:35.122Z,16.95
2023-03-17T19:19:02.828Z,17.80
2023-03-17T19:21:29.835Z,21.10
2023-03-17T19:23:59.839Z,17.63
2023-03-17T19:26:27.382Z,21.10
2023-03-17T19:28:56.302Z,19.00
2023-03-17T19:31:24.708Z,17.33
2023-03-17T19:33:51.937Z,15.70
2023-03-17T19:36:19.291Z,19.70
2023-03-17T19:38:46.386Z,22.58
2023-03-17T19:41:14.683Z,16.90
2023-03-17T19:43:41.875Z,18.40
2023-03-17T19:46:11.460Z,14.38
2023-03-17T19:48:38.881Z,19.35
2023-03-17T19:51:05.772Z,17.00
2023-03-17T19:53:32.623Z,13.10
2023-03-17T19:55:59.333Z,15.88
2023-03-17T19:58:27.009Z,14.77
2023-03-17T20:00:53.910Z,19.50
2023-03-17T20:03:20.639Z,16.20
2023-03-17T20:05:47.573Z,15.50
2023-03-17T20:08:14.737Z,18.95
2023-03-17T20:10:41.476Z,16.73
2023-03-17T20:13:08.557Z,15.07
2023-03-17T20:15:35.489Z,16.33
2023-03-17T20:18:02.656Z,20.73
2023-03-17T20:20:29.918Z,17.52
2023-03-17T20:22:57.312Z,17.92
2023-03-17T20:25:23.998Z,17.95
2023-03-17T20:27:51.109Z,14.02
2023-03-17T20:30:18.070Z,15.45
2023-03-17T20:32:45.364Z,15.85
2023-03-17T20:35:12.354Z,15.38
2023-03-17T20:37:39.578Z,21.98
2023-03-17T20:40:09.785Z,17.45
2023-03-17T20:42:36.526Z,19.67
2023-03-17T20:45:03.794Z,14.05
2023-03-17T20:47:31.070Z,15.70
2023-03-17T20:49:58.947Z,19.98
2023-03-17T20:52:29.461Z,14.32
2023-03-17T20:54:56.759Z,15.18
2023-03-17T20:57:23.508Z,15.50
2023-03-17T20:59:51.944Z,15.00
2023-03-17T21:02:19.430Z,12.98
2023-03-17T21:04:48.699Z,16.10
2023-03-17T21:07:17.323Z,14.00
2023-03-17T21:09:44.387Z,15.10
2023-03-17T21:12:14.239Z,15.77
2023-03-17T21:14:41.196Z,14.20
2023-03-17T21:17:08.656Z,14.57
2023-03-17T21:19:36.157Z,15.88
2023-03-17T21:22:04.478Z,15.57
2023-03-17T21:24:33.726Z,18.70
2023-03-17T21:27:02.266Z,16.40
2023-03-17T21:29:31.501Z,14.90
2023-03-17T21:32:00.394Z,15.80
2023-03-17T21:34:29.050Z,14.07
2023-03-17T21:36:57.269Z,15.88
2023-03-17T21:39:26.550Z,14.60
2023-03-17T21:41:55.419Z,17.85
2023-03-17T21:44:22.321Z,16.48
2023-03-17T21:46:49.781Z,14.90
2023-03-17T21:49:17.239Z,14.52
2023-03-17T21:51:44.993Z,17.00
2023-03-17T21:54:11.892Z,14.95
2023-03-17T21:56:39.678Z,14.63
2023-03-17T21:59:06.840Z,15.30
2023-03-17T22:01:34.636Z,16.75
2023-03-17T22:04:01.439Z,14.23
2023-03-17T22:06:29.572Z,12.63
2023-03-17T22:08:56.308Z,13.70
2023-03-17T22:11:23.016Z,13.82
2023-03-17T22:13:50.532Z,11.88
2023-03-17T22:16:18.432Z,12.05
2023-03-17T22:18:46.400Z,15.20
2023-03-17T22:21:13.400Z,12.88
2023-03-17T22:23:42.133Z,11.25
2023-03-17T22:26:14.134Z,14.20
2023-03-17T22:28:41.820Z,13.07
2023-03-17T22:31:16.539Z,16.15
2023-03-17T22:33:44.166Z,14.68
2023-03-17T22:36:11.634Z,16.27
2023-03-17T22:38:38.682Z,15.60
2023-03-17T22:41:08.257Z,12.38
2023-03-17T22:43:36.300Z,15.02
2023-03-17T22:46:04.152Z,16.88
2023-03-17T22:48:32.660Z,12.85
2023-03-17T22:51:08.198Z,16.13
2023-03-17T22:53:35.830Z,15.70
2023-03-17T22:56:04.100Z,13.80
2023-03-17T22:58:31.288Z,15.32
2023-03-17T23:00:58.130Z,11.65
2023-03-17T23:03:26.278Z,13.27
2023-03-17T23:05:57.176Z,11.35
2023-03-17T23:08:24.242Z,12.55
2023-03-17T23:10:51.157Z,12.00
2023-03-17T23:13:19.794Z,12.05
2023-03-17T23:15:47.480Z,13.43
2023-03-17T23:18:14.216Z,14.57
2023-03-17T23:20:41.250Z,16.70
2023-03-17T23:23:09.851Z,14.85
2023-03-17T23:25:36.932Z,13.50
2023-03-17T23:28:04.316Z,12.77
2023-03-17T23:30:31.823Z,16.33
2023-03-17T23:32:58.686Z,15.25
2023-03-17T23:35:25.784Z,20.40
2023-03-17T23:37:52.557Z,13.95
2023-03-17T23:40:19.288Z,15.45
2023-03-17T23:42:50.398Z,14.05
2023-03-17T23:45:18.279Z,17.80
2023-03-17T23:47:46.673Z,13.52
2023-03-17T23:50:14.854Z,16.98
2023-03-17T23:52:42.574Z,14.60
2023-03-17T23:55:10.494Z,17.48
2023-03-17T23:57:37.914Z,15.75
